Time;durP1;ratioP1;P1;durP2;ratioP2;P2;SDS_P1;SDS_P2;PMS_P1;PMS_P2;Temp;Humidity;BMP_temperature;BMP_pressure;BME280_temperature;BME280_humidity;BME280_pressure;Samples;Min_cycle;Max_cycle;Signal;HPM_P1;HPM_P2
2023/07/06 00:02:00;;;;;;;;;;;14.60;94.50;;;;;;5119303;28;19929;-60
2023/07/06 00:04:26;;;;;;;;;;;14.60;95.20;;;;;;5119376;28;19933;-60
2023/07/06 00:06:51;;;;;;;;;;;14.60;95.70;;;;;;5119396;28;19939;-60
2023/07/06 00:09:17;;;;;;;;;;;14.60;95.10;;;;;;5119057;28;19933;-60
2023/07/06 00:11:44;;;;;;;;;;;14.60;96.10;;;;;;5118901;28;20342;-60
2023/07/06 00:14:11;;;;;;;;;;;14.60;95.80;;;;;;5118964;28;20335;-60
2023/07/06 00:16:41;;;;;;;;;;;14.60;95.70;;;;;;5119135;28;19912;-60
2023/07/06 00:19:10;;;;;;;;;;;14.60;96.60;;;;;;5118939;28;20469;-60
2023/07/06 00:21:35;;;;;;;;;;;14.60;95.60;;;;;;5118865;28;19912;-60
2023/07/06 00:24:01;;;;;;;;;;;14.50;95.80;;;;;;5118914;28;19933;-60
2023/07/06 00:26:27;;;;;;;;;;;14.50;95.80;;;;;;5119319;28;19908;-60
2023/07/06 00:28:53;;;;;;;;;;;14.50;95.80;;;;;;5118919;28;19931;-60
2023/07/06 00:31:50;;;;;;;;;;;14.50;96.10;;;;;;5118419;28;20368;-60
2023/07/06 00:34:09;;;;;;;;;;;14.50;96.10;;;;;;5117678;28;20002;-60
2023/07/06 00:36:37;;;;;;;;;;;14.40;96.00;;;;;;5118609;28;20371;-60
2023/07/06 00:39:03;;;;;;;;;;;14.40;96.30;;;;;;5118933;28;20283;-60
2023/07/06 00:41:30;;;;;;;;;;;14.40;98.00;;;;;;5118435;28;19927;-60
2023/07/06 00:43:56;;;;;;;;;;;14.40;97.10;;;;;;5118392;28;19908;-60
2023/07/06 00:46:25;;;;;;;;;;;14.30;96.70;;;;;;5118378;28;19912;-60
2023/07/06 00:48:52;;;;;;;;;;;14.30;97.30;;;;;;5118569;28;19979;-60
2023/07/06 00:51:24;;;;;;;;;;;14.30;96.90;;;;;;5118646;28;19908;-60
2023/07/06 00:53:54;;;;;;;;;;;14.30;96.80;;;;;;5118669;28;20378;-60
2023/07/06 00:56:23;;;;;;;;;;;14.30;96.30;;;;;;5118333;28;20359;-60
2023/07/06 00:58:50;;;;;;;;;;;14.20;96.90;;;;;;5118270;28;20291;-60
2023/07/06 01:01:19;;;;;;;;;;;14.20;96.60;;;;;;5118278;28;19908;-60
2023/07/06 01:03:47;;;;;;;;;;;14.10;96.90;;;;;;5118489;28;19912;-60
2023/07/06 01:06:34;;;;;;;;;;;14.20;97.20;;;;;;5118104;28;20370;-60
2023/07/06 01:09:00;;;;;;;;;;;14.10;96.80;;;;;;5118253;28;19908;-60
2023/07/06 01:11:28;;;;;;;;;;;14.10;97.10;;;;;;5118213;28;19908;-60
2023/07/06 01:13:54;;;;;;;;;;;14.10;97.10;;;;;;5118129;28;19908;-60
2023/07/06 01:16:54;;;;;;;;;;;14.00;97.30;;;;;;5118059;28;19951;-60
2023/07/06 01:19:38;;;;;;;;;;;14.00;97.10;;;;;;5084438;28;19907;-60
2023/07/06 01:22:23;;;;;;;;;;;13.90;97.20;;;;;;5118434;28;19915;-60
2023/07/06 01:25:07;;;;;;;;;;;13.90;98.50;;;;;;5118377;28;19992;-60
2023/07/06 01:27:33;;;;;;;;;;;13.90;97.90;;;;;;5118150;28;20406;-60
2023/07/06 01:30:00;;;;;;;;;;;13.90;97.80;;;;;;5118207;28;19908;-60
2023/07/06 01:32:27;;;;;;;;;;;13.80;97.30;;;;;;5117989;28;20345;-60
2023/07/06 01:35:01;;;;;;;;;;;13.80;97.80;;;;;;5118473;28;20006;-60
2023/07/06 01:37:37;;;;;;;;;;;13.80;97.90;;;;;;5118000;28;19918;-60
2023/07/06 01:40:09;;;;;;;;;;;13.80;98.40;;;;;;5118209;28;19915;-60
2023/07/06 01:42:35;;;;;;;;;;;13.70;98.10;;;;;;5117952;28;20003;-60
2023/07/06 01:45:09;;;;;;;;;;;13.70;98.10;;;;;;5118176;28;19912;-60
2023/07/06 01:47:37;;;;;;;;;;;13.70;98.60;;;;;;5122264;28;20000;-60
2023/07/06 01:50:03;;;;;;;;;;;13.60;97.70;;;;;;5121859;28;19915;-60
2023/07/06 01:52:44;;;;;;;;;;;13.60;97.50;;;;;;5121630;28;20440;-60
2023/07/06 01:55:28;;;;;;;;;;;13.60;98.00;;;;;;5122182;28;19995;-60
2023/07/06 01:58:06;;;;;;;;;;;13.50;98.30;;;;;;5121678;28;20353;-60
2023/07/06 02:00:34;;;;;;;;;;;13.50;98.80;;;;;;5121895;28;19998;-60
2023/07/06 02:03:00;;;;;;;;;;;13.50;98.60;;;;;;5121600;28;19999;-60
2023/07/06 02:05:26;;;;;;;;;;;13.50;98.60;;;;;;5121820;28;19908;-60
2023/07/06 02:07:52;;;;;;;;;;;13.40;98.60;;;;;;5121574;28;20332;-60
2023/07/06 02:10:19;;;;;;;;;;;13.40;98.90;;;;;;5121689;28;19907;-60
2023/07/06 02:12:47;;;;;;;;;;;13.40;98.70;;;;;;5121480;28;19912;-60
2023/07/06 02:15:21;;;;;;;;;;;13.40;99.10;;;;;;5121609;28;19908;-60
2023/07/06 02:17:47;;;;;;;;;;;13.30;98.80;;;;;;5121243;28;19911;-60
2023/07/06 02:20:15;;;;;;;;;;;13.30;99.70;;;;;;5121570;28;19951;-60
2023/07/06 02:22:41;;;;;;;;;;;13.30;98.90;;;;;;5121281;28;20291;-60
2023/07/06 02:25:06;;;;;;;;;;;13.20;99.10;;;;;;5121426;28;19908;-60
2023/07/06 02:27:32;;;;;;;;;;;13.20;99.50;;;;;;5121161;28;19937;-60
2023/07/06 02:29:59;;;;;;;;;;;13.20;99.70;;;;;;5121359;28;19907;-60
2023/07/06 02:32:25;;;;;;;;;;;13.20;99.90;;;;;;5121041;28;19907;-60
2023/07/06 02:34:51;;;;;;;;;;;13.20;99.90;;;;;;5121112;28;19908;-60
2023/07/06 02:37:16;;;;;;;;;;;13.10;99.90;;;;;;5121304;28;19912;-60
2023/07/06 02:39:42;;;;;;;;;;;13.10;99.90;;;;;;5121126;28;19908;-60
2023/07/06 02:42:07;;;;;;;;;;;13.10;99.90;;;;;;5120752;28;19923;-60
2023/07/06 02:44:33;;;;;;;;;;;13.10;99.90;;;;;;5120826;28;19909;-60
2023/07/06 02:46:59;;;;;;;;;;;13.10;99.90;;;;;;5121035;28;19998;-60
2023/07/06 02:49:24;;;;;;;;;;;13.10;99.90;;;;;;5120533;28;19908;-60
2023/07/06 02:51:50;;;;;;;;;;;13.10;99.90;;;;;;5120925;28;19908;-60
2023/07/06 02:54:16;;;;;;;;;;;13.10;99.90;;;;;;5120526;28;20363;-60
2023/07/06 02:56:41;;;;;;;;;;;13.10;99.90;;;;;;5120213;28;19929;-60
2023/07/06 02:59:08;;;;;;;;;;;13.10;99.90;;;;;;5120350;28;19915;-60
2023/07/06 03:01:34;;;;;;;;;;;13.10;99.90;;;;;;5120427;28;20404;-60
2023/07/06 03:04:00;;;;;;;;;;;13.10;99.90;;;;;;5120450;28;19911;-60
2023/07/06 03:06:27;;;;;;;;;;;13.00;99.90;;;;;;5120731;28;19946;-60
2023/07/06 03:08:54;;;;;;;;;;;13.00;99.90;;;;;;5120370;28;19956;-60
2023/07/06 03:11:20;;;;;;;;;;;13.00;99.90;;;;;;5120385;28;19994;-60
2023/07/06 03:13:45;;;;;;;;;;;13.00;99.90;;;;;;5120668;28;20035;-60
2023/07/06 03:16:11;;;;;;;;;;;12.90;99.90;;;;;;5120539;28;20290;-60
2023/07/06 03:18:37;;;;;;;;;;;12.90;99.90;;;;;;5120303;28;19912;-60
2023/07/06 03:21:02;;;;;;;;;;;12.90;99.90;;;;;;5119982;28;19915;-60
2023/07/06 03:23:29;;;;;;;;;;;12.90;99.90;;;;;;5120305;28;19972;-60
2023/07/06 03:25:55;;;;;;;;;;;12.90;99.90;;;;;;5119836;28;19908;-60
2023/07/06 03:28:23;;;;;;;;;;;12.90;99.90;;;;;;5120199;28;20327;-60
2023/07/06 03:30:56;;;;;;;;;;;12.90;99.90;;;;;;5120277;28;19908;-60
2023/07/06 03:33:24;;;;;;;;;;;12.90;99.90;;;;;;5119887;28;20378;-60
2023/07/06 03:35:53;;;;;;;;;;;12.90;99.90;;;;;;5120048;28;19908;-60
2023/07/06 03:38:23;;;;;;;;;;;12.80;99.90;;;;;;5119134;28;19911;-60
2023/07/06 03:40:50;;;;;;;;;;;12.80;99.90;;;;;;5119641;28;19916;-60
2023/07/06 03:43:16;;;;;;;;;;;12.80;99.90;;;;;;5119935;28;19908;-60
2023/07/06 03:45:42;;;;;;;;;;;12.80;99.90;;;;;;5119979;28;20362;-60
2023/07/06 03:48:08;;;;;;;;;;;12.80;99.90;;;;;;5118623;28;19957;-60
2023/07/06 03:50:34;;;;;;;;;;;12.80;99.90;;;;;;5119411;28;19908;-60
2023/07/06 03:53:00;;;;;;;;;;;12.80;99.90;;;;;;5119646;28;19914;-60
2023/07/06 03:55:26;;;;;;;;;;;12.80;99.90;;;;;;5119696;28;19916;-60
2023/07/06 03:57:52;;;;;;;;;;;12.70;99.90;;;;;;5119499;28;19919;-60
2023/07/06 04:00:21;;;;;;;;;;;12.70;99.90;;;;;;5119414;28;20390;-60
2023/07/06 04:02:52;;;;;;;;;;;12.70;99.90;;;;;;5119421;28;19907;-60
2023/07/06 04:05:19;;;;;;;;;;;12.60;99.90;;;;;;5119242;28;19908;-60
2023/07/06 04:07:45;;;;;;;;;;;12.60;99.90;;;;;;5119380;28;20463;-60
2023/07/06 04:10:12;;;;;;;;;;;12.60;99.90;;;;;;5119000;28;19908;-60
2023/07/06 04:12:38;;;;;;;;;;;12.60;99.90;;;;;;5119410;28;20390;-60
2023/07/06 04:15:05;;;;;;;;;;;12.60;99.90;;;;;;5119039;28;20398;-60
2023/07/06 04:17:31;;;;;;;;;;;12.60;99.90;;;;;;5118929;28;20283;-60
2023/07/06 04:19:57;;;;;;;;;;;12.60;99.90;;;;;;5118993;28;19930;-60
2023/07/06 04:22:23;;;;;;;;;;;12.50;99.90;;;;;;5118976;28;20378;-60
2023/07/06 04:24:48;;;;;;;;;;;12.50;99.90;;;;;;5119093;28;20006;-60
2023/07/06 04:27:14;;;;;;;;;;;12.50;99.90;;;;;;5119038;28;19947;-60
2023/07/06 04:29:39;;;;;;;;;;;12.50;99.90;;;;;;5118780;28;19907;-60
2023/07/06 04:32:06;;;;;;;;;;;12.50;99.90;;;;;;5117371;28;20392;-60
2023/07/06 04:34:31;;;;;;;;;;;12.40;99.90;;;;;;5118980;28;19907;-60
2023/07/06 04:36:57;;;;;;;;;;;12.40;99.90;;;;;;5118731;28;20463;-60
2023/07/06 04:39:22;;;;;;;;;;;12.40;99.90;;;;;;5118869;28;19908;-60
2023/07/06 04:41:48;;;;;;;;;;;12.40;99.90;;;;;;5118589;28;19920;-60
2023/07/06 04:44:15;;;;;;;;;;;12.40;99.90;;;;;;5118557;28;19950;-60
2023/07/06 04:46:41;;;;;;;;;;;12.40;99.90;;;;;;5118665;28;19908;-60
2023/07/06 04:49:07;;;;;;;;;;;12.40;99.90;;;;;;5117337;28;19908;-60
2023/07/06 04:51:35;;;;;;;;;;;12.40;99.90;;;;;;5118770;28;19914;-60
2023/07/06 04:54:02;;;;;;;;;;;12.40;99.90;;;;;;5118539;28;19908;-60
2023/07/06 04:56:27;;;;;;;;;;;12.40;99.90;;;;;;5118441;28;20373;-60
2023/07/06 04:58:53;;;;;;;;;;;12.40;99.90;;;;;;5118471;28;19908;-60
2023/07/06 05:01:19;;;;;;;;;;;12.40;99.90;;;;;;5118238;28;19908;-60
2023/07/06 05:03:45;;;;;;;;;;;12.40;99.90;;;;;;5118316;28;20018;-60
2023/07/06 05:06:13;;;;;;;;;;;12.40;99.90;;;;;;5118423;28;19958;-60
2023/07/06 05:08:49;;;;;;;;;;;12.40;99.90;;;;;;5118187;28;20379;-60
2023/07/06 05:11:15;;;;;;;;;;;12.40;99.90;;;;;;5118327;28;19908;-60
2023/07/06 05:13:41;;;;;;;;;;;12.40;99.90;;;;;;5118532;28;19908;-60
2023/07/06 05:16:07;;;;;;;;;;;12.40;99.90;;;;;;5118494;28;20386;-60
2023/07/06 05:18:32;;;;;;;;;;;12.40;99.90;;;;;;5118432;28;19933;-60
2023/07/06 05:20:58;;;;;;;;;;;12.40;99.90;;;;;;5120083;28;19907;-60
2023/07/06 05:23:28;;;;;;;;;;;12.40;99.90;;;;;;5122301;28;19908;-60
2023/07/06 05:25:55;;;;;;;;;;;12.50;99.90;;;;;;5122773;28;19994;-60
2023/07/06 05:28:21;;;;;;;;;;;12.50;99.90;;;;;;5122605;28;19908;-60
2023/07/06 05:30:47;;;;;;;;;;;12.50;99.90;;;;;;5122341;28;19908;-60
2023/07/06 05:33:12;;;;;;;;;;;12.50;99.90;;;;;;5122786;28;19915;-60
2023/07/06 05:35:38;;;;;;;;;;;12.50;99.90;;;;;;5122172;28;19915;-60
2023/07/06 05:38:07;;;;;;;;;;;12.50;99.90;;;;;;5120700;28;19912;-60
2023/07/06 05:40:32;;;;;;;;;;;12.60;99.90;;;;;;5121924;28;20259;-60
2023/07/06 05:42:58;;;;;;;;;;;12.60;99.90;;;;;;5122134;28;19916;-60
2023/07/06 05:45:25;;;;;;;;;;;12.60;99.90;;;;;;5121953;28;20669;-60
2023/07/06 05:47:50;;;;;;;;;;;12.70;99.90;;;;;;5122158;28;19908;-60
2023/07/06 05:50:16;;;;;;;;;;;12.70;99.90;;;;;;5121933;28;19915;-60
2023/07/06 05:52:42;;;;;;;;;;;12.70;99.90;;;;;;5122125;28;19915;-60
2023/07/06 05:55:08;;;;;;;;;;;12.80;99.90;;;;;;5121853;28;19908;-60
2023/07/06 05:57:34;;;;;;;;;;;12.80;99.90;;;;;;5121841;28;20002;-60
2023/07/06 06:00:01;;;;;;;;;;;12.80;99.90;;;;;;5122143;28;19951;-60
2023/07/06 06:02:27;;;;;;;;;;;12.80;99.90;;;;;;5121559;28;19908;-60
2023/07/06 06:04:53;;;;;;;;;;;12.90;99.90;;;;;;5121584;28;19915;-60
2023/07/06 06:07:19;;;;;;;;;;;12.90;99.90;;;;;;5122115;28;19908;-60
2023/07/06 06:09:46;;;;;;;;;;;13.00;99.90;;;;;;5121759;28;19908;-60
2023/07/06 06:12:18;;;;;;;;;;;13.00;99.90;;;;;;5121602;28;19915;-60
2023/07/06 06:14:44;;;;;;;;;;;13.00;99.90;;;;;;5121260;28;19907;-60
2023/07/06 06:17:09;;;;;;;;;;;13.00;99.90;;;;;;5121624;28;19912;-60
2023/07/06 06:19:37;;;;;;;;;;;13.10;99.90;;;;;;5121394;28;19919;-60
2023/07/06 06:22:04;;;;;;;;;;;13.10;99.90;;;;;;5121546;28;19937;-60
2023/07/06 06:24:29;;;;;;;;;;;13.20;99.90;;;;;;5121205;28;20002;-60
2023/07/06 06:26:55;;;;;;;;;;;13.20;99.90;;;;;;5121226;28;19939;-60
2023/07/06 06:29:21;;;;;;;;;;;13.30;99.90;;;;;;5121273;28;19965;-60
2023/07/06 06:31:46;;;;;;;;;;;13.30;99.90;;;;;;5120298;28;19908;-60
2023/07/06 06:34:12;;;;;;;;;;;13.40;99.90;;;;;;5120987;28;20383;-60
2023/07/06 06:36:37;;;;;;;;;;;13.40;99.90;;;;;;5121216;28;19915;-60
2023/07/06 06:39:04;;;;;;;;;;;13.50;99.90;;;;;;5120943;28;20005;-60
2023/07/06 06:41:30;;;;;;;;;;;13.60;99.90;;;;;;5121096;28;19947;-60
2023/07/06 06:43:56;;;;;;;;;;;13.60;99.90;;;;;;5121109;28;19943;-60
2023/07/06 06:46:23;;;;;;;;;;;13.70;99.90;;;;;;5120706;28;20263;-60
2023/07/06 06:48:49;;;;;;;;;;;13.80;99.90;;;;;;5120816;28;20024;-60
2023/07/06 06:51:15;;;;;;;;;;;13.90;99.90;;;;;;5120801;28;19908;-60
2023/07/06 06:53:40;;;;;;;;;;;14.00;99.90;;;;;;5120737;28;19908;-60
2023/07/06 06:56:09;;;;;;;;;;;14.10;99.90;;;;;;5120731;28;19933;-60
2023/07/06 06:58:35;;;;;;;;;;;14.20;99.90;;;;;;5120541;28;20271;-60
2023/07/06 07:01:02;;;;;;;;;;;14.30;99.90;;;;;;5120814;28;19943;-60
2023/07/06 07:03:28;;;;;;;;;;;14.40;99.90;;;;;;5120576;28;20506;-60
2023/07/06 07:06:11;;;;;;;;;;;14.50;99.90;;;;;;5120687;28;20011;-60
2023/07/06 07:08:38;;;;;;;;;;;14.60;99.90;;;;;;5120957;28;19914;-60
2023/07/06 07:11:04;;;;;;;;;;;14.70;99.90;;;;;;5120656;28;19950;-60
2023/07/06 07:13:30;;;;;;;;;;;14.80;99.90;;;;;;5120405;28;20398;-60
2023/07/06 07:15:55;;;;;;;;;;;14.90;99.90;;;;;;5120758;28;19934;-60
2023/07/06 07:18:21;;;;;;;;;;;15.10;99.90;;;;;;5120429;28;19919;-60
2023/07/06 07:20:53;;;;;;;;;;;15.20;99.90;;;;;;5120307;28;20378;-61
2023/07/06 07:23:21;;;;;;;;;;;15.30;99.90;;;;;;5120050;28;20385;-60
2023/07/06 07:25:48;;;;;;;;;;;15.40;99.90;;;;;;5120276;28;19914;-60
2023/07/06 07:28:16;;;;;;;;;;;15.50;99.90;;;;;;5120961;28;19914;-60
2023/07/06 07:30:43;;;;;;;;;;;15.60;99.90;;;;;;5120093;28;19915;-60
2023/07/06 07:33:08;;;;;;;;;;;15.70;99.90;;;;;;5119942;28;19908;-60
2023/07/06 07:35:36;;;;;;;;;;;15.80;99.90;;;;;;5119704;28;19915;-60
2023/07/06 07:38:02;;;;;;;;;;;15.90;99.90;;;;;;5119945;28;19912;-61
2023/07/06 07:40:38;;;;;;;;;;;16.00;99.90;;;;;;5119135;28;20325;-60
2023/07/06 07:43:04;;;;;;;;;;;16.00;99.90;;;;;;5118497;28;19924;-60
2023/07/06 07:45:29;;;;;;;;;;;16.20;99.90;;;;;;5119582;28;19951;-61
2023/07/06 07:47:56;;;;;;;;;;;16.20;99.90;;;;;;5119921;28;19990;-60
2023/07/06 07:50:21;;;;;;;;;;;16.30;99.90;;;;;;5119360;28;19908;-60
2023/07/06 07:52:48;;;;;;;;;;;16.40;99.90;;;;;;5119799;28;19908;-60
2023/07/06 07:55:14;;;;;;;;;;;16.40;99.90;;;;;;5119566;28;19915;-60
2023/07/06 07:57:40;;;;;;;;;;;16.50;99.90;;;;;;5119562;28;19912;-61
2023/07/06 08:00:07;;;;;;;;;;;16.50;99.90;;;;;;5119369;28;19912;-60
2023/07/06 08:02:33;;;;;;;;;;;16.60;99.90;;;;;;5119520;28;19933;-60
2023/07/06 08:05:03;;;;;;;;;;;16.60;99.90;;;;;;5119617;28;19907;-60
2023/07/06 08:07:31;;;;;;;;;;;16.60;99.90;;;;;;5119335;28;19919;-61
2023/07/06 08:09:57;;;;;;;;;;;16.70;99.90;;;;;;5119379;28;19907;-60
2023/07/06 08:12:23;;;;;;;;;;;16.70;99.90;;;;;;5119393;28;19908;-60
2023/07/06 08:14:48;;;;;;;;;;;16.80;99.90;;;;;;5117709;28;20432;-61
2023/07/06 08:17:17;;;;;;;;;;;16.80;99.90;;;;;;5119177;28;19919;-60
2023/07/06 08:19:45;;;;;;;;;;;16.90;99.90;;;;;;5118839;28;19928;-60
2023/07/06 08:22:11;;;;;;;;;;;16.90;99.90;;;;;;5118992;28;19907;-60
2023/07/06 08:24:38;;;;;;;;;;;17.00;99.90;;;;;;5100599;28;19915;-60
2023/07/06 08:27:04;;;;;;;;;;;17.00;99.90;;;;;;5091084;28;19919;-60
2023/07/06 08:29:31;;;;;;;;;;;17.10;99.90;;;;;;5085059;28;20371;-60
2023/07/06 08:31:58;;;;;;;;;;;17.10;99.90;;;;;;5098384;28;19912;-60
2023/07/06 08:34:26;;;;;;;;;;;17.20;99.90;;;;;;5093624;28;20375;-60
2023/07/06 08:36:52;;;;;;;;;;;17.20;99.90;;;;;;5078842;28;20300;-60
2023/07/06 08:39:18;;;;;;;;;;;17.30;99.90;;;;;;5083257;28;19930;-60
2023/07/06 08:41:44;;;;;;;;;;;17.30;99.90;;;;;;5098248;28;20379;-60
2023/07/06 08:44:12;;;;;;;;;;;17.30;99.90;;;;;;5098236;28;19974;-60
2023/07/06 08:46:40;;;;;;;;;;;17.30;99.90;;;;;;5098002;28;20482;-60
2023/07/06 08:49:18;;;;;;;;;;;17.30;99.90;;;;;;5098409;28;19908;-60
2023/07/06 08:51:44;;;;;;;;;;;17.40;99.90;;;;;;5091490;28;19990;-60
2023/07/06 08:54:28;;;;;;;;;;;17.40;99.90;;;;;;5093616;28;19920;-60
2023/07/06 08:56:53;;;;;;;;;;;17.50;99.90;;;;;;5086110;28;20015;-60
2023/07/06 08:59:39;;;;;;;;;;;17.50;99.90;;;;;;5085339;28;19940;-60
2023/07/06 09:02:16;;;;;;;;;;;17.60;99.90;;;;;;5083967;28;19919;-60
2023/07/06 09:04:42;;;;;;;;;;;17.70;99.90;;;;;;5077647;28;19920;-60
2023/07/06 09:07:13;;;;;;;;;;;17.80;99.90;;;;;;5081491;28;19912;-60
2023/07/06 09:09:42;;;;;;;;;;;17.90;99.90;;;;;;5085837;28;19952;-60
2023/07/06 09:12:26;;;;;;;;;;;18.00;99.90;;;;;;5084599;28;20294;-60
2023/07/06 09:14:53;;;;;;;;;;;18.10;99.90;;;;;;5090839;28;20053;-60
2023/07/06 09:17:19;;;;;;;;;;;18.10;99.90;;;;;;5098125;28;19912;-60
2023/07/06 09:19:45;;;;;;;;;;;18.30;99.90;;;;;;5082389;28;19952;-60
2023/07/06 09:22:10;;;;;;;;;;;18.40;99.90;;;;;;5088971;28;19930;-60
2023/07/06 09:24:36;;;;;;;;;;;18.40;99.90;;;;;;5093754;28;19920;-60
2023/07/06 09:27:09;;;;;;;;;;;18.50;99.90;;;;;;5096661;28;19962;-60
2023/07/06 09:29:37;;;;;;;;;;;18.50;99.90;;;;;;5097737;28;19947;-60
2023/07/06 09:32:32;;;;;;;;;;;18.60;99.90;;;;;;5097692;28;19909;-60
2023/07/06 09:35:08;;;;;;;;;;;18.60;99.90;;;;;;5096385;28;19908;-60
2023/07/06 09:37:43;;;;;;;;;;;18.80;99.90;;;;;;5097396;28;20007;-60
2023/07/06 09:40:11;;;;;;;;;;;18.90;99.90;;;;;;5097822;28;19916;-60
2023/07/06 09:42:37;;;;;;;;;;;18.90;98.10;;;;;;5097292;28;20383;-60
2023/07/06 09:45:12;;;;;;;;;;;19.00;99.90;;;;;;5097832;28;20020;-60
2023/07/06 09:47:42;;;;;;;;;;;19.10;99.20;;;;;;5097441;28;19908;-60
2023/07/06 09:50:18;;;;;;;;;;;19.20;95.20;;;;;;5097579;28;19908;-60
2023/07/06 09:52:43;;;;;;;;;;;19.20;92.50;;;;;;5097515;28;19985;-61
2023/07/06 09:55:23;;;;;;;;;;;19.30;94.80;;;;;;5096952;28;20466;-60
2023/07/06 09:57:49;;;;;;;;;;;19.50;95.60;;;;;;5096285;28;19919;-60
2023/07/06 10:00:17;;;;;;;;;;;19.60;94.30;;;;;;5097909;28;19951;-60
2023/07/06 10:02:43;;;;;;;;;;;19.90;95.40;;;;;;5097427;28;20368;-60
2023/07/06 10:05:11;;;;;;;;;;;20.00;95.60;;;;;;5097663;28;19908;-60
2023/07/06 10:07:37;;;;;;;;;;;20.20;96.70;;;;;;5099860;28;19908;-60
2023/07/06 10:10:09;;;;;;;;;;;20.40;93.50;;;;;;5101218;28;19909;-60
2023/07/06 10:12:54;;;;;;;;;;;20.60;98.10;;;;;;5101327;28;19960;-60
2023/07/06 10:15:25;;;;;;;;;;;21.00;97.70;;;;;;5101455;28;19908;-60
2023/07/06 10:17:56;;;;;;;;;;;21.40;94.80;;;;;;5100960;28;19919;-60
2023/07/06 10:20:30;;;;;;;;;;;22.20;95.60;;;;;;5101358;28;20422;-60
2023/07/06 10:23:09;;;;;;;;;;;22.90;84.40;;;;;;5101113;28;19931;-60
2023/07/06 10:25:50;;;;;;;;;;;23.30;73.20;;;;;;5100798;28;19915;-60
2023/07/06 10:28:19;;;;;;;;;;;23.50;74.50;;;;;;5101010;28;20003;-61
2023/07/06 10:30:47;;;;;;;;;;;24.20;82.00;;;;;;5100881;28;19916;-61
2023/07/06 10:33:18;;;;;;;;;;;24.20;65.30;;;;;;5101157;28;19998;-60
2023/07/06 10:35:50;;;;;;;;;;;24.10;64.00;;;;;;5099323;28;19961;-61
2023/07/06 10:38:16;;;;;;;;;;;24.10;64.60;;;;;;5099867;28;19916;-61
2023/07/06 10:40:42;;;;;;;;;;;24.30;66.10;;;;;;5100283;28;19919;-61
2023/07/06 10:43:14;;;;;;;;;;;24.20;66.30;;;;;;5098857;28;19924;-61
2023/07/06 10:45:48;;;;;;;;;;;25.20;71.50;;;;;;5100192;28;19916;-61
2023/07/06 10:48:16;;;;;;;;;;;26.30;77.00;;;;;;5100031;28;20294;-61
2023/07/06 10:50:49;;;;;;;;;;;25.80;60.60;;;;;;5100067;28;20311;-61
2023/07/06 10:53:24;;;;;;;;;;;25.60;70.70;;;;;;5100209;28;19908;-61
2023/07/06 10:56:03;;;;;;;;;;;26.80;67.40;;;;;;5100020;28;19912;-62
2023/07/06 10:58:30;;;;;;;;;;;27.70;68.90;;;;;;5099711;28;20033;-61
2023/07/06 11:00:57;;;;;;;;;;;27.50;62.20;;;;;;5100055;28;19912;-62
2023/07/06 11:03:27;;;;;;;;;;;26.70;61.30;;;;;;5099999;28;19913;-62
2023/07/06 11:06:06;;;;;;;;;;;26.90;60.40;;;;;;5100005;28;20287;-61
2023/07/06 11:08:51;;;;;;;;;;;26.80;60.00;;;;;;5100076;28;19908;-62
2023/07/06 11:11:18;;;;;;;;;;;26.30;59.40;;;;;;5100110;28;19909;-61
2023/07/06 11:13:53;;;;;;;;;;;26.30;59.00;;;;;;5100084;28;19908;-61
2023/07/06 11:16:41;;;;;;;;;;;26.20;56.20;;;;;;5100051;28;20359;-61
2023/07/06 11:19:09;;;;;;;;;;;27.30;60.00;;;;;;5099069;28;20294;-61
2023/07/06 11:21:39;;;;;;;;;;;26.50;54.90;;;;;;5098443;28;19915;-61
2023/07/06 11:24:06;;;;;;;;;;;25.90;55.50;;;;;;5098435;28;19920;-61
2023/07/06 11:26:35;;;;;;;;;;;26.60;55.10;;;;;;5099020;28;19915;-61
2023/07/06 11:29:08;;;;;;;;;;;26.80;57.10;;;;;;5099439;28;20508;-61
2023/07/06 11:31:38;;;;;;;;;;;27.30;55.80;;;;;;5099820;28;19948;-61
2023/07/06 11:34:28;;;;;;;;;;;26.70;54.40;;;;;;5099588;28;19915;-61
2023/07/06 11:37:14;;;;;;;;;;;26.10;55.40;;;;;;5079798;28;19912;-61
2023/07/06 11:39:39;;;;;;;;;;;25.60;55.40;;;;;;5099804;28;19908;-61
2023/07/06 11:42:16;;;;;;;;;;;25.70;60.90;;;;;;5099312;28;20414;-61
2023/07/06 11:44:42;;;;;;;;;;;26.80;60.10;;;;;;5099886;28;19971;-61
2023/07/06 11:47:19;;;;;;;;;;;27.70;55.60;;;;;;5099500;28;20390;-61
2023/07/06 11:49:49;;;;;;;;;;;27.90;57.10;;;;;;5099272;28;19915;-61
2023/07/06 11:52:16;;;;;;;;;;;27.90;54.40;;;;;;5099457;28;20342;-61
2023/07/06 11:54:49;;;;;;;;;;;26.50;52.10;;;;;;5099210;28;19915;-61
2023/07/06 11:57:24;;;;;;;;;;;26.10;55.10;;;;;;5099192;28;20002;-61
2023/07/06 12:02:57;;;;;;;;;;;24.70;60.40;;;;;;5099386;28;19915;-61
2023/07/06 12:05:33;;;;;;;;;;;26.30;58.70;;;;;;5098880;28;19909;-61
2023/07/06 12:08:00;;;;;;;;;;;27.90;53.60;;;;;;5099101;28;19963;-61
2023/07/06 12:10:28;;;;;;;;;;;26.80;46.60;;;;;;5098733;28;19999;-61
2023/07/06 12:12:55;;;;;;;;;;;27.00;49.90;;;;;;5098783;28;19931;-60
2023/07/06 12:15:21;;;;;;;;;;;27.80;50.70;;;;;;5096880;28;19912;-60
2023/07/06 12:17:56;;;;;;;;;;;27.50;46.10;;;;;;5098625;28;20058;-61
2023/07/06 12:20:29;;;;;;;;;;;27.50;47.40;;;;;;5098549;28;19908;-60
2023/07/06 12:22:59;;;;;;;;;;;27.80;49.30;;;;;;5098566;28;19919;-60
2023/07/06 12:25:27;;;;;;;;;;;27.70;46.10;;;;;;5098616;28;19998;-61
2023/07/06 12:27:57;;;;;;;;;;;27.30;46.70;;;;;;5098548;28;19918;-60
2023/07/06 12:30:27;;;;;;;;;;;27.40;46.70;;;;;;5098671;28;19934;-61
2023/07/06 12:32:53;;;;;;;;;;;27.90;47.40;;;;;;5098721;28;20351;-61
2023/07/06 12:35:19;;;;;;;;;;;27.90;49.40;;;;;;5098383;28;20010;-61
2023/07/06 12:37:45;;;;;;;;;;;27.50;47.30;;;;;;5098634;28;19958;-61
2023/07/06 12:40:18;;;;;;;;;;;28.60;49.90;;;;;;5098235;28;19947;-61
2023/07/06 12:42:44;;;;;;;;;;;29.10;44.50;;;;;;5097498;28;20383;-61
2023/07/06 12:45:11;;;;;;;;;;;28.70;43.70;;;;;;5096451;28;19912;-61
2023/07/06 12:47:42;;;;;;;;;;;28.20;42.30;;;;;;5096943;28;19919;-61
2023/07/06 12:50:10;;;;;;;;;;;28.30;45.10;;;;;;5098114;28;20398;-61
2023/07/06 12:52:37;;;;;;;;;;;28.80;43.50;;;;;;5098701;28;19909;-61
2023/07/06 12:55:03;;;;;;;;;;;28.20;43.80;;;;;;5098347;28;19937;-61
2023/07/06 12:57:32;;;;;;;;;;;28.80;45.70;;;;;;5097996;28;19919;-61
2023/07/06 13:00:08;;;;;;;;;;;28.90;44.90;;;;;;5098339;28;19947;-62
2023/07/06 13:02:36;;;;;;;;;;;29.00;41.90;;;;;;5098588;28;20017;-62
2023/07/06 13:05:14;;;;;;;;;;;29.20;43.20;;;;;;5097962;28;19908;-61
2023/07/06 13:07:40;;;;;;;;;;;29.00;42.20;;;;;;5098249;28;19961;-61
2023/07/06 13:10:12;;;;;;;;;;;29.10;42.70;;;;;;5098110;28;19958;-62
2023/07/06 13:12:41;;;;;;;;;;;28.40;46.20;;;;;;5098173;28;19953;-62
2023/07/06 13:15:09;;;;;;;;;;;28.20;43.00;;;;;;5098191;28;19912;-62
2023/07/06 13:17:35;;;;;;;;;;;28.20;45.00;;;;;;5098075;28;19920;-62
2023/07/06 13:20:04;;;;;;;;;;;28.70;45.20;;;;;;5097807;28;19912;-62
2023/07/06 13:22:29;;;;;;;;;;;28.90;43.10;;;;;;5097905;28;19908;-63
2023/07/06 13:24:55;;;;;;;;;;;28.20;44.00;;;;;;5098068;28;19998;-63
2023/07/06 13:27:22;;;;;;;;;;;27.10;44.90;;;;;;5097784;28;20007;-62
2023/07/06 13:29:50;;;;;;;;;;;27.10;45.20;;;;;;5097741;28;19961;-63
2023/07/06 13:32:16;;;;;;;;;;;27.50;46.20;;;;;;5097978;28;19908;-62
2023/07/06 13:34:43;;;;;;;;;;;27.70;46.90;;;;;;5098247;28;19944;-63
2023/07/06 13:37:12;;;;;;;;;;;26.90;47.20;;;;;;5097886;28;19945;-63
2023/07/06 13:39:38;;;;;;;;;;;27.10;47.30;;;;;;5098124;28;19908;-63
2023/07/06 13:42:04;;;;;;;;;;;27.70;47.70;;;;;;5099245;28;20057;-63
2023/07/06 13:44:29;;;;;;;;;;;27.80;42.60;;;;;;5102163;28;20363;-62
2023/07/06 13:46:55;;;;;;;;;;;27.20;41.70;;;;;;5101691;28;19908;-62
2023/07/06 13:49:21;;;;;;;;;;;26.80;43.30;;;;;;5102122;28;20301;-62
2023/07/06 13:51:49;;;;;;;;;;;27.40;43.90;;;;;;5100331;28;20404;-62
2023/07/06 13:54:14;;;;;;;;;;;27.20;43.90;;;;;;5101617;28;19908;-62
2023/07/06 13:56:42;;;;;;;;;;;26.60;44.90;;;;;;5101729;28;19908;-62
2023/07/06 13:59:08;;;;;;;;;;;26.40;47.00;;;;;;5101469;28;19919;-62
2023/07/06 14:01:33;;;;;;;;;;;26.50;47.40;;;;;;5101682;28;19908;-62
2023/07/06 14:04:01;;;;;;;;;;;26.60;48.20;;;;;;5101402;28;19931;-62
2023/07/06 14:06:27;;;;;;;;;;;26.70;47.50;;;;;;5101374;28;19916;-62
2023/07/06 14:08:53;;;;;;;;;;;25.80;49.60;;;;;;5101129;28;19908;-62
2023/07/06 14:11:19;;;;;;;;;;;25.20;52.10;;;;;;5101680;28;19908;-62
2023/07/06 14:13:44;;;;;;;;;;;25.40;54.40;;;;;;5101341;28;19908;-62
2023/07/06 14:16:10;;;;;;;;;;;25.70;53.20;;;;;;5101545;28;20272;-62
2023/07/06 14:18:36;;;;;;;;;;;26.10;51.50;;;;;;5101078;28;19912;-62
2023/07/06 14:21:05;;;;;;;;;;;26.10;52.70;;;;;;5100975;28;19916;-62
2023/07/06 14:23:31;;;;;;;;;;;25.20;54.90;;;;;;5100941;28;19977;-62
2023/07/06 14:25:56;;;;;;;;;;;24.50;58.30;;;;;;5100995;28;19975;-62
2023/07/06 14:28:26;;;;;;;;;;;24.50;59.80;;;;;;5101355;28;19951;-62